createdAt,value
2022-12-09T00:02:12.312Z,98162.00
2022-12-09T00:04:39.793Z,98158.53
2022-12-09T00:07:07.206Z,98160.16
2022-12-09T00:09:34.129Z,98158.41
2022-12-09T00:12:01.379Z,98162.78
2022-12-09T00:14:28.160Z,98160.16
2022-12-09T00:16:55.349Z,98162.75
2022-12-09T00:19:22.316Z,98162.75
2022-12-09T00:21:49.713Z,98163.69
2022-12-09T00:24:16.585Z,98159.44
2022-12-09T00:26:43.905Z,98156.75
2022-12-09T00:29:11.787Z,98162.78
2022-12-09T00:31:39.436Z,98169.69
2022-12-09T00:34:10.959Z,98170.63
2022-12-09T00:36:38.297Z,98157.69
2022-12-09T00:39:05.415Z,98168.03
2022-12-09T00:41:32.687Z,98158.53
2022-12-09T00:43:59.556Z,98151.63
2022-12-09T00:46:27.664Z,98152.38
2022-12-09T00:48:54.820Z,98148.19
2022-12-09T00:51:23.716Z,98157.69
2022-12-09T00:53:54.791Z,98149.84
2022-12-09T00:56:26.571Z,98148.13
2022-12-09T00:58:53.512Z,98149.91
2022-12-09T01:01:21.195Z,98148.19
2022-12-09T01:03:48.327Z,98138.66
2022-12-09T01:06:19.198Z,98143.94
2022-12-09T01:08:46.378Z,98143.97
2022-12-09T01:11:21.057Z,98150.94
2022-12-09T01:13:48.908Z,98144.81
2022-12-09T01:16:18.949Z,98143.03
2022-12-09T01:18:46.297Z,98132.59
2022-12-09T01:21:14.162Z,98132.59
2022-12-09T01:23:41.195Z,98131.78
2022-12-09T01:26:08.645Z,98135.28
2022-12-09T01:28:37.884Z,98133.47
2022-12-09T01:31:09.476Z,98137.81
2022-12-09T01:33:36.431Z,98132.66
2022-12-09T01:36:10.747Z,98129.16
2022-12-09T01:38:38.232Z,98141.25
2022-12-09T01:41:06.084Z,98135.22
2022-12-09T01:43:33.221Z,98131.78
2022-12-09T01:46:00.481Z,98131.81
2022-12-09T01:48:32.843Z,98140.50
2022-12-09T01:51:08.924Z,98132.72
2022-12-09T01:53:39.060Z,98135.34
2022-12-09T01:56:10.845Z,98128.44
2022-12-09T01:58:38.182Z,98124.94
2022-12-09T02:01:05.578Z,98114.50
2022-12-09T02:03:33.120Z,98117.94
2022-12-09T02:06:00.410Z,98105.78
2022-12-09T02:08:27.242Z,98108.38
2022-12-09T02:11:03.827Z,98106.63
2022-12-09T02:13:47.295Z,98105.72
2022-12-09T02:16:20.166Z,98101.44
2022-12-09T02:19:09.097Z,98099.66
2022-12-09T02:21:49.603Z,98103.06
2022-12-09T02:24:33.551Z,98085.84
2022-12-09T02:27:23.480Z,98100.59
2022-12-09T02:30:05.960Z,98087.53
2022-12-09T02:32:43.153Z,98087.53
2022-12-09T02:35:20.730Z,98097.88
2022-12-09T02:37:57.644Z,98092.78
2022-12-09T02:43:24.868Z,98097.28
2022-12-09T02:45:53.836Z,98093.78
2022-12-09T02:48:25.471Z,98092.84
2022-12-09T02:50:54.644Z,98077.19
2022-12-09T02:53:25.180Z,98085.72
2022-12-09T02:55:54.948Z,98077.06
2022-12-09T02:58:21.898Z,98082.22
2022-12-09T03:00:49.938Z,98088.25
2022-12-09T03:03:19.303Z,98081.34
2022-12-09T03:05:59.030Z,98085.72
2022-12-09T03:08:31.882Z,98077.16
2022-12-09T03:11:09.145Z,98090.94
2022-12-09T03:14:17.185Z,98090.06
2022-12-09T03:16:44.247Z,98075.38
2022-12-09T03:19:20.464Z,98084.88
2022-12-09T03:21:52.331Z,98080.44
2022-12-09T03:24:24.911Z,98083.06
2022-12-09T03:26:53.823Z,98083.81
2022-12-09T03:29:25.018Z,98076.03
2022-12-09T03:31:55.458Z,98076.88
2022-12-09T03:34:31.047Z,98071.69
2022-12-09T03:37:00.049Z,98062.25
2022-12-09T03:39:32.262Z,98071.75
2022-12-09T03:42:03.995Z,98064.88
2022-12-09T03:44:36.278Z,98059.63
2022-12-09T03:47:05.553Z,98063.06
2022-12-09T03:49:34.401Z,98059.63
2022-12-09T03:52:20.165Z,98073.44
2022-12-09T03:54:50.812Z,98069.09
2022-12-09T03:57:20.584Z,98062.22
2022-12-09T03:59:54.072Z,98064.00
2022-12-09T04:02:22.229Z,98077.81
2022-12-09T04:04:49.549Z,98074.34
2022-12-09T04:07:17.670Z,98074.34
2022-12-09T04:09:44.798Z,98077.78
2022-12-09T04:12:12.262Z,98082.91
2022-12-09T04:14:40.222Z,98078.53
2022-12-09T04:17:07.561Z,98081.13
2022-12-09T04:19:34.659Z,98081.97
2022-12-09T04:22:01.927Z,98087.16
2022-12-09T04:24:28.874Z,98082.81
2022-12-09T04:26:56.014Z,98076.72
2022-12-09T04:29:23.089Z,98077.59
2022-12-09T04:31:50.355Z,98077.56
2022-12-09T04:34:17.465Z,98066.28
2022-12-09T04:36:44.952Z,98068.88
2022-12-09T04:39:11.957Z,98071.41
2022-12-09T04:41:39.047Z,98065.28
2022-12-09T04:44:06.472Z,98068.72
2022-12-09T04:46:34.171Z,98063.50
2022-12-09T04:49:01.223Z,98062.66
2022-12-09T04:51:31.336Z,98060.94
2022-12-09T04:54:02.513Z,98062.66
2022-12-09T04:56:30.472Z,98063.50
2022-12-09T04:58:57.420Z,98066.94
2022-12-09T05:01:30.242Z,98067.75
2022-12-09T05:03:58.702Z,98071.19
2022-12-09T05:06:26.723Z,98069.44
2022-12-09T05:08:54.985Z,98075.44
2022-12-09T05:11:24.356Z,98079.72
2022-12-09T05:13:53.889Z,98072.75
2022-12-09T05:16:22.461Z,98075.34
2022-12-09T05:18:50.128Z,98084.88
2022-12-09T05:21:20.351Z,98088.31
2022-12-09T05:23:48.666Z,98085.00
2022-12-09T05:26:19.276Z,98076.41
2022-12-09T05:28:46.842Z,98076.50
2022-12-09T05:31:18.134Z,98082.66
2022-12-09T05:33:46.819Z,98083.59
2022-12-09T05:36:17.016Z,98082.78
2022-12-09T05:38:45.059Z,98078.44
2022-12-09T05:41:12.772Z,98087.16
2022-12-09T05:43:40.941Z,98081.97
2022-12-09T05:46:08.799Z,98078.50
2022-12-09T05:48:36.840Z,98078.50
2022-12-09T05:51:17.245Z,98079.34
2022-12-09T05:53:44.505Z,98082.88
2022-12-09T05:56:16.186Z,98075.09
2022-12-09T05:58:43.311Z,98077.69
2022-12-09T06:01:11.349Z,98069.88
2022-12-09T06:03:39.067Z,98070.78
2022-12-09T06:06:12.590Z,98063.91
2022-12-09T06:08:41.134Z,98069.03
2022-12-09T06:11:14.654Z,98076.84
2022-12-09T06:13:42.220Z,98081.13
2022-12-09T06:16:10.606Z,98081.97
2022-12-09T06:18:38.629Z,98088.81
2022-12-09T06:21:08.120Z,98081.84
2022-12-09T06:23:36.021Z,98081.00
2022-12-09T06:26:04.976Z,98078.31
2022-12-09T06:28:33.248Z,98073.94
2022-12-09T06:31:00.908Z,98080.75
2022-12-09T06:36:15.048Z,98077.16
2022-12-09T06:38:42.598Z,98083.16
2022-12-09T06:41:12.963Z,98073.56
2022-12-09T06:43:41.331Z,98070.06
2022-12-09T06:46:26.061Z,98074.38
2022-12-09T06:48:54.896Z,98080.38
2022-12-09T06:51:23.672Z,98079.38
2022-12-09T06:53:51.028Z,98081.97
2022-12-09T06:56:18.583Z,98084.53
2022-12-09T06:58:47.417Z,98085.38
2022-12-09T07:01:20.794Z,98088.91
2022-12-09T07:03:51.444Z,98083.69
2022-12-09T07:06:22.044Z,98085.44
2022-12-09T07:08:49.330Z,98081.00
2022-12-09T07:11:16.778Z,98083.56
2022-12-09T07:13:43.749Z,98082.66
2022-12-09T07:16:11.045Z,98087.72
2022-12-09T07:18:38.185Z,98079.81
2022-12-09T07:21:10.715Z,98082.31
2022-12-09T07:23:38.299Z,98085.66
2022-12-09T07:26:07.411Z,98086.38
2022-12-09T07:28:36.539Z,98078.47
2022-12-09T07:31:04.502Z,98080.88
2022-12-09T07:33:31.863Z,98085.00
2022-12-09T07:36:00.130Z,98084.78
2022-12-09T07:38:27.180Z,98091.50
2022-12-09T07:40:54.348Z,98092.19
2022-12-09T07:43:21.276Z,98092.00
2022-12-09T07:45:49.562Z,98091.88
2022-12-09T07:48:17.086Z,98083.03
2022-12-09T07:50:44.738Z,98081.03
2022-12-09T07:53:11.747Z,98083.34
2022-12-09T07:55:39.249Z,98075.44
2022-12-09T07:58:06.438Z,98070.06
2022-12-09T08:00:34.014Z,98071.75
2022-12-09T08:03:01.020Z,98063.00
2022-12-09T08:05:28.414Z,98070.59
2022-12-09T08:07:55.790Z,98062.47
2022-12-09T08:10:23.120Z,98063.13
2022-12-09T08:12:50.700Z,98066.44
2022-12-09T08:15:20.287Z,98064.47
2022-12-09T08:17:47.342Z,98063.31
2022-12-09T08:20:15.581Z,98069.06
2022-12-09T08:22:42.885Z,98059.22
2022-12-09T08:25:11.412Z,98062.19
2022-12-09T08:27:38.879Z,98061.94
2022-12-09T08:30:07.486Z,98062.81
2022-12-09T08:32:35.069Z,98060.97
2022-12-09T08:35:02.882Z,98058.31
2022-12-09T08:37:29.858Z,98065.09
2022-12-09T08:39:57.153Z,98055.34
2022-12-09T08:42:24.281Z,98065.66
2022-12-09T08:44:55.844Z,98060.25
2022-12-09T08:47:28.574Z,98052.38
2022-12-09T08:49:55.965Z,98049.59
2022-12-09T08:52:23.342Z,98045.22
2022-12-09T08:54:50.584Z,98039.16
2022-12-09T08:57:22.962Z,98031.28
2022-12-09T08:59:50.490Z,98036.25
2022-12-09T09:02:17.542Z,98044.00
2022-12-09T09:04:46.096Z,98042.28
2022-12-09T09:07:14.051Z,98046.59
2022-12-09T09:09:41.425Z,98045.69
2022-12-09T09:12:08.891Z,98039.50
2022-12-09T09:14:36.373Z,98036.03
2022-12-09T09:17:03.531Z,98035.88
2022-12-09T09:19:31.786Z,98032.69
2022-12-09T09:21:59.236Z,98026.88
2022-12-09T09:24:26.835Z,98028.06
2022-12-09T09:26:54.711Z,98031.06
2022-12-09T09:29:22.945Z,98027.41
2022-12-09T09:31:54.525Z,98036.75
2022-12-09T09:34:23.049Z,98030.34
2022-12-09T09:36:51.379Z,98021.19
2022-12-09T09:39:20.141Z,98026.56
2022-12-09T09:42:08.253Z,98027.03
2022-12-09T09:44:44.028Z,98023.81
2022-12-09T09:47:46.272Z,98014.16
2022-12-09T09:50:51.131Z,98003.84
2022-12-09T09:53:26.097Z,98009.06
2022-12-09T09:56:02.126Z,98002.41
2022-12-09T09:58:41.292Z,98003.97
2022-12-09T10:01:13.860Z,97999.31
2022-12-09T10:04:13.132Z,97998.22
2022-12-09T10:07:04.057Z,97992.28
2022-12-09T10:09:49.107Z,97994.78
2022-12-09T10:12:28.330Z,97994.75
2022-12-09T10:15:08.877Z,97991.06
2022-12-09T10:17:59.592Z,97979.34
2022-12-09T10:20:30.601Z,97981.03
2022-12-09T10:23:04.096Z,97983.63
2022-12-09T10:25:39.154Z,97982.63
2022-12-09T10:28:14.262Z,97977.00
2022-12-09T10:30:44.498Z,97979.31
2022-12-09T10:33:14.876Z,97981.59
2022-12-09T10:35:42.536Z,97978.38
2022-12-09T10:38:12.687Z,97970.31
2022-12-09T10:40:45.971Z,97979.59
2022-12-09T10:43:36.241Z,97968.28
2022-12-09T10:46:23.130Z,97978.28
2022-12-09T10:48:50.686Z,97975.13
2022-12-09T10:51:48.863Z,97970.75
2022-12-09T10:54:28.382Z,97967.78
2022-12-09T10:57:03.654Z,97952.78
2022-12-09T10:59:32.168Z,97959.59
2022-12-09T11:02:01.956Z,97965.50
2022-12-09T11:04:56.148Z,97966.47
2022-12-09T11:07:27.981Z,97963.44
2022-12-09T11:09:58.819Z,97960.69
2022-12-09T11:12:32.244Z,97960.06
2022-12-09T11:15:12.853Z,97966.47
2022-12-09T11:17:55.799Z,97957.41
2022-12-09T11:20:27.473Z,97972.38
2022-12-09T11:23:09.128Z,97961.25
2022-12-09T11:25:37.740Z,97960.25
2022-12-09T11:28:06.719Z,97963.66
2022-12-09T11:31:12.035Z,97963.22
2022-12-09T11:33:48.275Z,97964.53
2022-12-09T11:36:24.501Z,97963.47
2022-12-09T11:39:07.018Z,97954.03
2022-12-09T11:41:53.524Z,97961.09
2022-12-09T11:44:25.496Z,97955.31
2022-12-09T11:47:02.220Z,97955.13
2022-12-09T11:49:31.874Z,97950.41
2022-12-09T11:52:28.250Z,97944.16
2022-12-09T11:55:22.741Z,97946.09
2022-12-09T11:58:06.307Z,97954.47
2022-12-09T12:00:51.312Z,97951.00
2022-12-09T12:03:42.307Z,97948.03
2022-12-09T12:06:19.531Z,97951.19
2022-12-09T12:08:54.730Z,97952.72
2022-12-09T12:11:28.904Z,97954.47
2022-12-09T12:14:15.101Z,97949.69
2022-12-09T12:17:00.173Z,97942.41
2022-12-09T12:19:35.393Z,97938.22
2022-12-09T12:22:27.673Z,97946.41
2022-12-09T12:25:09.888Z,97953.28
2022-12-09T12:28:02.274Z,97947.94
2022-12-09T12:30:41.758Z,97951.34
2022-12-09T12:33:59.871Z,97952.34
2022-12-09T12:36:10.679Z,97944.34
2022-12-09T12:38:37.504Z,97951.28
2022-12-09T12:41:16.786Z,97949.59
2022-12-09T12:44:20.997Z,97956.03
2022-12-09T12:47:13.947Z,97952.94
2022-12-09T12:49:54.295Z,97948.78
2022-12-09T12:52:54.872Z,97945.53
2022-12-09T12:55:26.236Z,97942.34
2022-12-09T12:58:18.622Z,97938.00
2022-12-09T13:01:13.302Z,97937.09
2022-12-09T13:03:56.889Z,97940.53
2022-12-09T13:06:43.338Z,97944.31
2022-12-09T13:09:22.227Z,97934.53
2022-12-09T13:12:07.086Z,97939.69
2022-12-09T13:14:52.548Z,97956.72
2022-12-09T13:17:23.513Z,97945.81
2022-12-09T13:19:53.258Z,97934.91
2022-12-09T13:22:24.490Z,97929.91
2022-12-09T13:24:59.985Z,97932.88
2022-12-09T13:27:32.286Z,97919.25
2022-12-09T13:30:09.595Z,97923.16
2022-12-09T13:32:58.405Z,97918.25
2022-12-09T13:35:31.242Z,97916.84
2022-12-09T13:37:59.458Z,97914.56
2022-12-09T13:40:30.844Z,97924.31
2022-12-09T13:43:04.972Z,97916.75
2022-12-09T13:45:44.072Z,97921.19
2022-12-09T13:48:16.438Z,97930.94
2022-12-09T13:50:57.455Z,97928.47
2022-12-09T13:53:29.812Z,97932.91
2022-12-09T13:56:18.021Z,97933.13
2022-12-09T13:58:56.748Z,97939.41
2022-12-09T14:01:32.972Z,97942.97
2022-12-09T14:04:14.950Z,97932.66
2022-12-09T14:06:44.942Z,97941.50
2022-12-09T14:09:23.901Z,97930.44
2022-12-09T14:11:53.611Z,97928.84
2022-12-09T14:14:23.482Z,97928.97
2022-12-09T14:16:51.985Z,97919.59
2022-12-09T14:19:24.668Z,97920.81
2022-12-09T14:22:19.630Z,97914.06
2022-12-09T14:24:50.997Z,97916.84
2022-12-09T14:27:21.164Z,97930.03
2022-12-09T14:30:06.840Z,97924.16
2022-12-09T14:32:36.719Z,97919.03
2022-12-09T14:35:12.480Z,97923.59
2022-12-09T14:38:17.830Z,97927.97
2022-12-09T14:40:52.494Z,97913.31
2022-12-09T14:43:57.586Z,97920.31
2022-12-09T14:46:46.888Z,97901.19
2022-12-09T14:49:24.874Z,97908.13
2022-12-09T14:51:58.748Z,97916.94
2022-12-09T14:54:28.717Z,97901.22
2022-12-09T14:56:58.751Z,97903.81
2022-12-09T14:59:28.705Z,97895.91
2022-12-09T15:01:59.004Z,97886.31
2022-12-09T15:04:30.062Z,97888.88
2022-12-09T15:07:20.364Z,97887.09
2022-12-09T15:09:51.636Z,97885.28
2022-12-09T15:12:20.129Z,97879.28
2022-12-09T15:14:49.634Z,97888.03
2022-12-09T15:17:23.930Z,97886.38
2022-12-09T15:20:00.076Z,97882.00
2022-12-09T15:22:31.688Z,97871.56
2022-12-09T15:24:59.737Z,97885.53
2022-12-09T15:27:26.934Z,97869.00
2022-12-09T15:29:54.542Z,97868.97
2022-12-09T15:32:29.969Z,97873.25
2022-12-09T15:35:20.106Z,97864.66
2022-12-09T15:37:51.040Z,97858.56
2022-12-09T15:40:20.781Z,97856.13
2022-12-09T15:42:51.471Z,97856.22
2022-12-09T15:45:22.693Z,97853.69
2022-12-09T15:47:56.125Z,97845.03
2022-12-09T15:50:28.465Z,97839.06
2022-12-09T15:53:03.802Z,97840.88
2022-12-09T15:55:37.834Z,97835.81
2022-12-09T15:58:10.176Z,97829.81
2022-12-09T16:00:40.453Z,97828.06
2022-12-09T16:03:08.462Z,97820.34
2022-12-09T16:05:41.568Z,97819.66
2022-12-09T16:08:09.933Z,97825.91
2022-12-09T16:10:49.218Z,97815.59
2022-12-09T16:13:17.847Z,97809.63
2022-12-09T16:15:53.562Z,97805.38
2022-12-09T16:18:26.508Z,97800.31
2022-12-09T16:21:15.763Z,97802.19
2022-12-09T16:23:44.586Z,97797.22
2022-12-09T16:26:21.302Z,97792.97
2022-12-09T16:28:58.741Z,97787.75
2022-12-09T16:31:26.353Z,97790.28
2022-12-09T16:33:53.418Z,97786.84
2022-12-09T16:36:26.021Z,97774.59
2022-12-09T16:39:08.250Z,97771.94
2022-12-09T16:42:03.475Z,97765.84
2022-12-09T16:44:33.344Z,97767.63
2022-12-09T16:47:11.789Z,97751.13
2022-12-09T16:49:40.605Z,97761.56
2022-12-09T16:52:12.015Z,97757.22
2022-12-09T16:54:39.022Z,97763.38
2022-12-09T16:57:06.170Z,97754.75
2022-12-09T16:59:37.794Z,97761.78
2022-12-09T17:02:27.401Z,97760.88
2022-12-09T17:04:54.485Z,97765.22
2022-12-09T17:07:21.801Z,97755.69
2022-12-09T17:09:48.557Z,97770.50
2022-12-09T17:12:15.756Z,97750.63
2022-12-09T17:14:42.651Z,97753.22
2022-12-09T17:17:09.794Z,97746.44
2022-12-09T17:19:36.693Z,97749.06
2022-12-09T17:22:03.953Z,97739.56
2022-12-09T17:24:30.834Z,97734.28
2022-12-09T17:26:57.890Z,97736.97
2022-12-09T17:29:24.717Z,97735.22
2022-12-09T17:31:52.470Z,97730.00
2022-12-09T17:34:19.436Z,97728.41
2022-12-09T17:36:46.778Z,97720.59
2022-12-09T17:39:14.973Z,97721.50
2022-12-09T17:41:42.834Z,97713.69
2022-12-09T17:44:10.001Z,97705.91
2022-12-09T17:46:37.446Z,97691.16
2022-12-09T17:49:04.335Z,97691.06
2022-12-09T17:51:35.947Z,97691.06
2022-12-09T17:54:04.370Z,97680.69
2022-12-09T17:56:31.625Z,97683.34
2022-12-09T17:59:02.783Z,97679.91
2022-12-09T18:01:30.440Z,97670.41
2022-12-09T18:04:02.930Z,97669.47
2022-12-09T18:06:34.760Z,97665.06
2022-12-09T18:09:04.009Z,97659.91
2022-12-09T18:11:31.594Z,97659.97
2022-12-09T18:13:59.317Z,97654.75
2022-12-09T18:16:26.176Z,97647.84
2022-12-09T18:18:53.307Z,97642.75
2022-12-09T18:21:20.476Z,97637.50
2022-12-09T18:23:48.502Z,97633.13
2022-12-09T18:26:18.350Z,97622.72
2022-12-09T18:28:45.401Z,97627.06
2022-12-09T18:31:16.382Z,97621.06
2022-12-09T18:33:43.734Z,97616.69
2022-12-09T18:36:13.468Z,97615.84
2022-12-09T18:38:41.817Z,97609.84
2022-12-09T18:41:24.380Z,97596.03
2022-12-09T18:43:53.808Z,97599.44
2022-12-09T18:46:25.479Z,97593.53
2022-12-09T18:49:05.977Z,97584.81
2022-12-09T18:51:33.123Z,97582.09
2022-12-09T18:54:01.959Z,97576.81
2022-12-09T18:56:29.283Z,97566.41
2022-12-09T18:59:06.369Z,97563.00
2022-12-09T19:01:34.348Z,97561.19
2022-12-09T19:04:03.720Z,97563.81
2022-12-09T19:06:33.466Z,97554.34
2022-12-09T19:09:13.328Z,97555.19
2022-12-09T19:11:41.446Z,97550.91
2022-12-09T19:14:09.447Z,97546.59
2022-12-09T19:16:37.102Z,97543.19
2022-12-09T19:19:09.549Z,97542.31
2022-12-09T19:21:38.361Z,97536.22
2022-12-09T19:24:06.136Z,97532.78
2022-12-09T19:26:34.830Z,97533.69
2022-12-09T19:29:05.110Z,97525.88
2022-12-09T19:31:38.145Z,97525.09
2022-12-09T19:34:08.712Z,97519.94
2022-12-09T19:36:35.816Z,97512.09
2022-12-09T19:39:06.226Z,97508.78
2022-12-09T19:41:33.046Z,97508.09
2022-12-09T19:44:01.841Z,97504.69
2022-12-09T19:46:29.067Z,97501.47
2022-12-09T19:48:57.388Z,97498.88
2022-12-09T19:51:26.294Z,97502.28
2022-12-09T19:53:55.321Z,97498.97
2022-12-09T19:56:22.536Z,97480.03
2022-12-09T19:58:50.077Z,97485.25
2022-12-09T20:01:21.715Z,97476.59
2022-12-09T20:03:51.627Z,97484.41
2022-12-09T20:06:20.659Z,97491.31
2022-12-09T20:08:49.034Z,97481.81
2022-12-09T20:11:18.450Z,97477.44
2022-12-09T20:13:45.950Z,97476.66
2022-12-09T20:16:15.749Z,97473.19
2022-12-09T20:18:43.205Z,97460.25
2022-12-09T20:21:12.126Z,97470.84
2022-12-09T20:23:40.856Z,97460.50
2022-12-09T20:26:11.301Z,97444.13
2022-12-09T20:28:40.551Z,97452.84
2022-12-09T20:31:16.580Z,97450.31
2022-12-09T20:33:44.253Z,97451.22
2022-12-09T20:36:12.632Z,97451.13
2022-12-09T20:38:40.742Z,97436.44
2022-12-09T20:41:14.134Z,97428.59
2022-12-09T20:43:44.346Z,97431.06
2022-12-09T20:46:20.459Z,97437.19
2022-12-09T20:48:48.616Z,97433.72
2022-12-09T20:51:19.204Z,97428.50
2022-12-09T20:53:47.816Z,97426.69
2022-12-09T20:56:15.580Z,97422.28
2022-12-09T20:58:44.632Z,97420.47
2022-12-09T21:01:23.450Z,97414.28
2022-12-09T21:03:52.040Z,97414.28
2022-12-09T21:06:21.239Z,97410.84
2022-12-09T21:08:48.871Z,97398.63
2022-12-09T21:11:18.456Z,97415.13
2022-12-09T21:13:53.721Z,97398.63
2022-12-09T21:16:23.514Z,97387.38
2022-12-09T21:18:52.389Z,97398.66
2022-12-09T21:21:20.765Z,97402.00
2022-12-09T21:23:49.995Z,97394.25
2022-12-09T21:26:18.824Z,97387.19
2022-12-09T21:28:46.681Z,97392.44
2022-12-09T21:31:15.164Z,97386.31
2022-12-09T21:33:43.941Z,97387.03
2022-12-09T21:36:13.537Z,97384.44
2022-12-09T21:38:40.907Z,97381.84
2022-12-09T21:41:10.910Z,97378.34
2022-12-09T21:43:38.736Z,97362.72
2022-12-09T21:46:09.922Z,97363.56
2022-12-09T21:48:38.109Z,97356.59
2022-12-09T21:51:05.717Z,97365.31
2022-12-09T21:53:33.425Z,97367.84
2022-12-09T21:56:04.117Z,97361.78
2022-12-09T21:58:32.309Z,97342.66
2022-12-09T22:00:59.887Z,97339.28
2022-12-09T22:03:27.046Z,97341.16
2022-12-09T22:05:58.341Z,97339.38
2022-12-09T22:08:25.729Z,97336.00
2022-12-09T22:10:53.032Z,97336.09
2022-12-09T22:13:20.158Z,97336.19
2022-12-09T22:15:46.914Z,97329.31
2022-12-09T22:18:14.013Z,97327.53
2022-12-09T22:23:28.141Z,97322.19
2022-12-09T22:25:54.952Z,97319.72
2022-12-09T22:28:22.141Z,97309.31
2022-12-09T22:30:49.022Z,97309.31
2022-12-09T22:33:16.129Z,97299.75
2022-12-09T22:35:42.912Z,97306.72
2022-12-09T22:38:14.401Z,97302.34
2022-12-09T22:40:41.511Z,97294.47
2022-12-09T22:43:08.718Z,97292.72
2022-12-09T22:45:36.271Z,97294.47
2022-12-09T22:48:04.041Z,97290.94
2022-12-09T22:50:31.162Z,97286.66
2022-12-09T22:52:58.230Z,97285.84
2022-12-09T22:55:25.078Z,97281.41
2022-12-09T22:57:52.180Z,97283.09
2022-12-09T23:00:19.078Z,97278.66
2022-12-09T23:02:46.253Z,97276.97
2022-12-09T23:05:13.261Z,97283.03
2022-12-09T23:07:40.525Z,97276.91
2022-12-09T23:10:07.999Z,97272.47
2022-12-09T23:12:35.318Z,97273.31
2022-12-09T23:15:02.318Z,97280.25
2022-12-09T23:17:29.409Z,97277.63
2022-12-09T23:19:56.189Z,97275.88
2022-12-09T23:22:23.277Z,97278.41
2022-12-09T23:24:50.098Z,97269.81
2022-12-09T23:27:17.253Z,97268.91
2022-12-09T23:29:45.104Z,97262.91
2022-12-09T23:32:12.265Z,97261.22
2022-12-09T23:34:40.087Z,97256.13
2022-12-09T23:37:07.272Z,97256.28
2022-12-09T23:39:34.059Z,97252.88
2022-12-09T23:42:01.182Z,97260.81
2022-12-09T23:44:28.009Z,97249.56
2022-12-09T23:46:55.152Z,97254.06
2022-12-09T23:49:22.033Z,97247.06
2022-12-09T23:51:49.158Z,97241.09
2022-12-09T23:54:17.262Z,97245.59
2022-12-09T23:56:49.909Z,97243.88
2022-12-09T23:59:20.602Z,97243.00
